Terminal Aerodrome Forecast
Issued by NWS Charleston, WV

Current Version | Previous Version | Graphics & Text | Print | Product List | Glossary On
Versions: 1 2 3 4 5 6 7 8 9 10 11 12 13 14 15 16 17 18 19 20 21
329
FTUS41 KRLX 270532
TAFBKW
TAF
KBKW 270532Z 2706/2806 25005KT 3SM SHRA VCTS OVC035CB
     FM270800 23004KT 6SM SHRA OVC015
     FM271500 26007KT P6SM BKN035
     FM272100 30004KT 3SM SHRA VCTS BKN040CB
     FM280000 00000KT P6SM VCSH BKN060
     FM280500 VRB03KT P6SM BKN100=

USA.gov is the U.S. government's official web portal to all federal, state and local government web resources and services.